Slide Mountain Weather observations

Data are for 10 minute period ending at time listed.
 Day   Time   Solar   Ave.   Ave.  Ave.  Vector  Max.    Baro.  
  of    of     Rad.   Air    Rel.  Wind   Wind   Wind   Press.  
Year   Day            Temp.  Hum.  Speed  Dir.   Gust           
2016   (PST)  Kw/m2    F      %     mph   deg.    mph     mb.   
-----------------------------------------------------------------
 269   21:10   0.00   49.4    28   24.7    77     34.2    724.0 
 269   21:20   0.00   49.3    28   23.7    77     34.2    724.0 
 269   21:30   0.00   49.3    29   25.0    72     37.0    724.0 
 269   21:40   0.00   49.2    29   25.9    73     35.3    723.9 
 269   21:50   0.00   49.2    29   24.6    78     33.3    723.8 
 269   22:00   0.00   49.1    29   25.5    82     35.0    723.8 
 269   22:10   0.00   49.0    29   25.7    78     34.4    723.8 
 269   22:20   0.00   49.0    29   29.0    77     38.4    723.7 
 269   22:30   0.00   49.0    29   30.8    78     41.5    723.5 
 269   22:40   0.00   49.0    30   32.9    83     44.2    723.4 
 269   22:50   0.00   49.0    30   33.3    85     43.9    723.3 
 269   23:00   0.00   48.7    31   34.3    86     44.2    723.3 
 269   23:10   0.00   48.5    31   34.1    87     44.2    723.3 
 269   23:20   0.00   48.5    31   31.9    84     42.6    723.4 
 269   23:30   0.00   48.7    30   29.9    85     41.0    723.4 
 269   23:40   0.00   48.6    31   24.3    85     33.8    723.5 
 269   23:50   0.00   48.6    31   25.7    84     39.9    723.3 
 270    0:00   0.00   49.0    30   28.0    85     41.4    723.2 
 270    0:10   0.00   48.9    31   23.9    86     33.6    723.3 
 270    0:20   0.00   48.8    32   25.3    87     36.5    723.2 
 270    0:30   0.00   48.5    32   23.4    86     33.7    723.2 
 270    0:40   0.00   48.4    32   18.9    92     29.8    723.2 
 270    0:50   0.00   48.2    32   19.1    87     28.5    723.2 
 270    1:00   0.00   48.4    32   20.2    88     28.9    723.1 
 270    1:10   0.00   48.5    32   20.0    90     29.2    723.0 
 270    1:20   0.00   48.6    32   20.1    92     31.6    723.0 
 270    1:30   0.00   48.9    32   21.9    97     32.7    723.0 
 270    1:40   0.00   48.7    32   22.1    96     31.8    722.9 
 270    1:50   0.00   48.5    32   23.6    91     32.0    722.8 
 270    2:00   0.00   48.3    33   20.5    90     29.8    722.8 
 270    2:10   0.00   48.2    33   18.9    90     29.0    722.7 
 270    2:20   0.00   48.2    33   18.5    93     26.9    722.6 
 270    2:30   0.00   48.2    33   18.7    99     28.4    722.5 
 270    2:40   0.00   48.0    33   17.1   101     27.0    722.6 
 270    2:50   0.00   47.8    33   13.5    96     21.4    722.6 
 270    3:00   0.00   47.8    33   12.7    95     19.2    722.7 
 270    3:10   0.00   48.4    32   20.7    95     32.3    722.4 
 270    3:20   0.00   48.7    31   25.4    97     34.1    722.2 
 270    3:30   0.00   48.2    32   23.2    98     32.2    722.2 
 270    3:40   0.00   48.3    32   18.2    98     25.4    722.3 
 270    3:50   0.00   48.5    32   18.8   110     26.2    722.3 
 270    4:00   0.00   48.7    32   21.7   111     30.6    722.2 
 270    4:10   0.00   48.8    32   19.3   111     27.6    722.3 
 270    4:20   0.00   49.0    33   20.9   116     28.3    722.2 
 270    4:30   0.00   48.8    33   18.9   115     28.1    722.2 
 270    4:40   0.00   48.0    33   15.9   121     23.9    722.4 
 270    4:50   0.00   48.2    33   19.0   120     28.6    722.3 
 270    5:00   0.00   47.9    33   15.5   124     24.8    722.4 
 270    5:10   0.00   48.0    33   16.0   124     24.3    722.4 
 270    5:20   0.00   47.8    34   12.3   125     20.1    722.5 
 270    5:30   0.00   47.8    34   10.7   131     19.8    722.5 
 270    5:40   0.00   48.2    32   11.3   137     20.3    722.5 
 270    5:50   0.00   49.2    29   14.2   142     20.3    722.6 
 270    6:00   0.01   50.5    27   14.8   147     21.5    722.6 
 270    6:10   0.02   51.4    27   13.7   142     20.7    722.6 
 270    6:20   0.05   52.1    27   12.9   141     21.7    722.7 
 270    6:30   0.08   52.6    27   14.2   142     24.0    722.7 
 270    6:40   0.11   53.1    27   13.1   145     25.9    722.8 
 270    6:50   0.14   53.7    26   13.8   149     22.6    722.8 
 270    7:00   0.17   53.8    26   12.6   149     20.8    722.9 
 270    7:10   0.20   54.8    25   13.0   146     22.1    723.0 
 270    7:20   0.22   55.1    25   12.9   148     20.5    723.0 
 270    7:30   0.25   55.8    25   11.2   148     19.4    723.0 
 270    7:40   0.28   56.3    24   12.1   144     20.8    723.0 
 270    7:50   0.31   56.9    24   13.5   147     21.4    723.0 
 270    8:00   0.33   57.5    23   12.9   147     21.4    723.0 
 270    8:10   0.36   57.7    23   12.1   150     21.6    723.1 
 270    8:20   0.39   58.4    22   10.9   149     19.3    723.2 
 270    8:30   0.41   58.6    22    8.7   152     16.6    723.2 
 270    8:40   0.44   58.7    22    8.7   153     16.2    723.2 
 270    8:50   0.46   59.2    22    8.7   152     17.6    723.2 
 270    9:00   0.48   59.3    22    8.8   149     18.5    723.2 
 270    9:10   0.51   59.8    21    6.7   152     12.8    723.2 
 270    9:20   0.53   60.5    21    7.5   148     14.8    723.2 
 270    9:30   0.55   61.5    20    4.9   149     11.9    723.3 
 270    9:40   0.56   61.7    20    5.2   159     13.7    723.2 
 270    9:50   0.58   61.0    21    6.0   165     12.7    723.2 
 270   10:00   0.60   60.9    21    4.6   165     14.7    723.2 
 270   10:10   0.61   63.0    22    1.7   207      4.3    723.2 
 270   10:20   0.63   62.2    22    1.9   208      5.4    723.1 
 270   10:30   0.64   62.5    21    0.5   228      3.0    723.0 
 270   10:40   0.65   63.8    21    0.9   230      4.7    723.0 
 270   10:50   0.66   64.6    22    0.8   232      3.7    723.0 
 270   11:00   0.67   64.3    23    1.4   234      5.6    722.9 
 270   11:10   0.68   64.4    22    0.4   199      2.1    722.9 
 270   11:20   0.68   64.9    21    0.4   199      2.0    722.8 
 270   11:30   0.69   63.9    21    1.0   205      4.0    722.8 
 270   11:40   0.69   64.1    21    0.2   158      1.0    722.8 
 270   11:50   0.69   63.9    21    0.5   116      3.2    722.7 
 270   12:00   0.69   62.5    22    0.8   154      4.9    722.7 
 270   12:10   0.69   61.8    22    1.1   177      4.3    722.7 
 270   12:20   0.68   63.0    22    0.9   179      4.7    722.6 
 270   12:30   0.68   62.5    21    1.8   115      7.8    722.5 
 270   12:40   0.67   59.8    22    3.0   107     10.7    722.4 
 270   12:50   0.66   59.0    23    6.8   103     16.3    722.3 
 270   13:00   0.65   59.3    23    4.2    98     10.7    722.2 
 270   13:10   0.64   59.5    23    5.2    91     11.6    722.2 
 270   13:20   0.63   60.1    23    5.0    96     11.3    722.2 
 270   13:30   0.62   59.5    23    5.6   108     13.8    722.2 
 270   13:40   0.60   59.8    23    5.0   122      9.8    722.2 
 270   13:50   0.59   60.5    23    3.2   119     10.6    722.1 
 270   14:00   0.57   60.2    23    4.2   117     11.7    722.0 
 270   14:10   0.55   59.7    24    4.9   112     11.3    722.0 
 270   14:20   0.53   59.8    23    5.5   106     13.1    722.0 
 270   14:30   0.51   60.6    23    4.6    71     11.1    722.0 
 270   14:40   0.49   60.2    23    5.0    76     10.9    721.9 
 270   14:50   0.47   60.2    23    7.1   100     19.4    721.9 
 270   15:00   0.44   60.2    23    5.9    71     12.6    721.9 
 270   15:10   0.42   59.7    23    5.8    54     11.3    721.8 
 270   15:20   0.39   60.2    23    4.9    58     10.1    721.8 
 270   15:30   0.37   60.2    23    2.6    76      8.0    721.7 
 270   15:40   0.34   60.0    24    2.9    49      7.1    721.7 
 270   15:50   0.31   59.3    24    4.8    55     10.4    721.6 
 270   16:00   0.29   58.8    24    4.5    48      8.9    721.6 
 270   16:10   0.26   58.3    24    5.3    39      9.6    721.5 
 270   16:20   0.23   58.1    25    5.9    39     10.8    721.5 
 270   16:30   0.20   57.9    25    6.2    42     11.0    721.5 
 270   16:40   0.17   57.8    25    5.0    38     10.9    721.5 
 270   16:50   0.15   57.8    25    3.6    33      7.2    721.4 
 270   17:00   0.12   57.6    24    3.9    36      8.2    721.4 
 270   17:10   0.09   57.6    24    3.6    28      9.1    721.4 
 270   17:20   0.06   57.3    24    5.1    31      9.1    721.3 
 270   17:30   0.03   56.7    25    5.3    33      9.7    721.3 
 270   17:40   0.01   56.4    25    7.1    33     11.5    721.3 
 270   17:50   0.00   55.9    25    7.0    28     12.0    721.3 
 270   18:00   0.00   55.6    26    7.7    24     11.8    721.2 
 270   18:10   0.00   55.4    26    8.3    26     12.8    721.2 
 270   18:20   0.00   55.3    26    7.5    26     12.1    721.2 
 270   18:30   0.00   55.1    27    7.8    27     12.0    721.3 
 270   18:40   0.00   55.0    27    7.1    34     12.3    721.3 
 270   18:50   0.00   55.0    27    4.5    30      9.3    721.3 
 270   19:00   0.00   55.0    27    3.4    33      5.9    721.3 
 270   19:10   0.00   54.8    27    4.2    43      6.4    721.4 
 270   19:20   0.00   55.0    26    3.9    44      6.5    721.4 
 270   19:30   0.00   54.8    26    4.7    46      7.2    721.4 
 270   19:40   0.00   54.7    26    4.6    51      7.6    721.4 
 270   19:50   0.00   54.7    26    4.6    46      7.6    721.4 
 270   20:00   0.00   54.4    27    6.3    40     10.0    721.4 
 270   20:10   0.00   54.3    28    7.0    35     11.1    721.4 
 270   20:20   0.00   54.1    28    7.6    37     11.8    721.4 
 270   20:30   0.00   54.0    28    8.0    43     12.0    721.4 
 270   20:40   0.00   53.9    29    7.2    44     12.0    721.4 
 270   20:50   0.00   53.8    29    6.9    44     11.5    721.4 
 270   21:00   0.00   53.8    29    7.1    40     11.5    721.4 

Return to Slide Mountain graphs page.


Western Regional Climate Center,wrcc@dri.edu